Time;durP1;ratioP1;P1;durP2;ratioP2;P2;SDS_P1;SDS_P2;PMS_P1;PMS_P2;Temp;Humidity;BMP_temperature;BMP_pressure;BME280_temperature;BME280_humidity;BME280_pressure;Samples;Min_cycle;Max_cycle;Signal;HPM_P1;HPM_P2
2023/11/17 00:00:50;;;;;;;1.80;0.60;;;9.80;97.40;;;;;;5033572;28;20267;-78
2023/11/17 00:03:17;;;;;;;1.80;0.70;;;9.90;97.00;;;;;;5033395;28;20727;-78
2023/11/17 00:05:44;;;;;;;2.00;0.90;;;9.90;97.10;;;;;;5033184;28;20191;-78
2023/11/17 00:08:12;;;;;;;1.88;0.77;;;10.00;96.20;;;;;;5033205;28;20223;-78
2023/11/17 00:10:40;;;;;;;2.00;0.73;;;10.10;95.90;;;;;;5033171;28;20192;-78
2023/11/17 00:13:07;;;;;;;2.13;0.98;;;10.20;95.50;;;;;;5033138;28;20210;-78
2023/11/17 00:15:35;;;;;;;1.67;0.60;;;10.20;95.90;;;;;;5033191;28;20246;-78
2023/11/17 00:18:02;;;;;;;1.85;0.80;;;10.20;95.90;;;;;;5033205;28;20234;-78
2023/11/17 00:20:29;;;;;;;2.30;0.90;;;10.30;96.50;;;;;;5033171;28;20187;-78
2023/11/17 00:22:56;;;;;;;2.80;0.82;;;10.30;96.80;;;;;;5033277;28;20277;-78
2023/11/17 00:25:29;;;;;;;1.80;0.80;;;10.30;96.80;;;;;;5033393;28;20191;-78
2023/11/17 00:27:57;;;;;;;1.83;0.70;;;10.30;96.70;;;;;;5033314;28;20180;-78
2023/11/17 00:30:24;;;;;;;1.90;1.00;;;10.30;97.10;;;;;;5033057;28;20235;-78
2023/11/17 00:32:51;;;;;;;2.35;0.80;;;10.40;97.70;;;;;;5035340;28;20199;-78
2023/11/17 00:35:19;;;;;;;1.70;0.68;;;10.30;98.10;;;;;;5036813;28;20229;-78
2023/11/17 00:37:51;;;;;;;3.53;0.70;;;10.10;96.80;;;;;;5036782;28;20191;-78
2023/11/17 00:40:20;;;;;;;1.67;0.60;;;10.10;95.90;;;;;;5036510;28;20180;-78
2023/11/17 00:42:47;;;;;;;2.08;0.70;;;10.10;95.70;;;;;;5036780;28;20221;-78
2023/11/17 00:45:17;;;;;;;1.70;0.60;;;10.00;95.60;;;;;;5036704;28;20192;-78
2023/11/17 00:47:45;;;;;;;1.70;0.63;;;10.00;95.60;;;;;;5036725;28;20261;-78
2023/11/17 00:50:23;;;;;;;1.88;0.70;;;9.90;96.00;;;;;;5036188;28;20650;-78
2023/11/17 00:52:50;;;;;;;1.80;0.60;;;9.80;95.70;;;;;;5036273;28;20179;-78
2023/11/17 00:55:19;;;;;;;1.60;0.50;;;9.80;95.70;;;;;;5036158;28;20195;-78
2023/11/17 00:57:47;;;;;;;1.67;0.55;;;9.70;95.40;;;;;;5035610;28;20219;-78
2023/11/17 01:00:16;;;;;;;1.80;0.65;;;9.60;95.50;;;;;;5036321;28;20370;-78
2023/11/17 01:02:43;;;;;;;1.70;0.60;;;9.50;95.80;;;;;;5035814;28;20298;-78
2023/11/17 01:05:18;;;;;;;1.70;0.60;;;9.50;95.50;;;;;;5036184;28;20246;-78
2023/11/17 01:07:46;;;;;;;1.80;0.70;;;9.40;95.60;;;;;;5036214;28;20253;-78
2023/11/17 01:10:15;;;;;;;1.70;0.70;;;9.40;95.80;;;;;;5036157;28;20215;-78
2023/11/17 01:12:45;;;;;;;1.60;0.60;;;9.40;95.80;;;;;;5036003;28;20195;-78
2023/11/17 01:15:15;;;;;;;1.80;0.60;;;9.30;95.90;;;;;;5036049;28;20278;-78
2023/11/17 01:17:45;;;;;;;1.70;0.60;;;9.20;95.60;;;;;;5035963;28;20227;-78
2023/11/17 01:20:15;;;;;;;1.80;0.70;;;9.20;95.40;;;;;;5035968;28;20180;-78
2023/11/17 01:22:42;;;;;;;1.80;0.68;;;9.10;95.40;;;;;;5035559;28;20270;-78
2023/11/17 01:25:10;;;;;;;1.90;0.65;;;9.10;95.20;;;;;;5035632;28;20631;-78
2023/11/17 01:27:38;;;;;;;1.60;0.50;;;9.10;95.20;;;;;;5035584;28;20646;-78
2023/11/17 01:30:12;;;;;;;2.00;0.70;;;9.00;94.90;;;;;;5035745;28;20203;-78
2023/11/17 01:32:40;;;;;;;1.75;0.60;;;9.00;95.10;;;;;;5035811;28;20179;-78
2023/11/17 01:35:09;;;;;;;1.90;0.70;;;8.90;95.10;;;;;;5035414;28;20650;-78
2023/11/17 01:37:37;;;;;;;2.70;0.60;;;8.90;95.10;;;;;;5035750;28;20615;-78
2023/11/17 01:40:05;;;;;;;1.67;0.57;;;8.80;94.90;;;;;;5035677;28;20274;-78
2023/11/17 01:42:34;;;;;;;1.80;0.60;;;8.80;95.00;;;;;;5035125;28;20274;-78
2023/11/17 01:45:07;;;;;;;1.70;0.60;;;8.80;94.80;;;;;;5034080;28;20187;-78
2023/11/17 01:47:35;;;;;;;1.60;0.50;;;8.70;94.90;;;;;;5035213;28;20176;-78
2023/11/17 01:50:04;;;;;;;1.70;0.60;;;8.70;95.20;;;;;;5034975;28;20192;-78
2023/11/17 01:52:34;;;;;;;1.70;0.60;;;8.70;95.30;;;;;;5035161;28;20658;-78
2023/11/17 01:55:05;;;;;;;1.70;0.60;;;8.70;95.50;;;;;;5035322;28;20226;-78
2023/11/17 01:57:34;;;;;;;1.67;0.60;;;8.70;95.30;;;;;;5034818;28;20223;-78
2023/11/17 02:00:06;;;;;;;1.70;0.70;;;8.70;95.30;;;;;;5034982;28;20196;-78
2023/11/17 02:02:33;;;;;;;1.92;0.70;;;8.60;95.40;;;;;;5034936;28;20242;-78
2023/11/17 02:05:01;;;;;;;1.80;0.80;;;8.60;95.30;;;;;;5034771;28;20195;-77
2023/11/17 02:07:36;;;;;;;1.70;0.70;;;8.50;95.10;;;;;;5035017;28;20593;-78
2023/11/17 02:10:10;;;;;;;1.70;0.60;;;8.60;94.70;;;;;;5035327;28;20229;-78
2023/11/17 02:12:52;;;;;;;1.70;0.70;;;8.50;94.90;;;;;;5034792;28;20187;-78
2023/11/17 02:15:25;;;;;;;1.67;0.60;;;8.50;95.20;;;;;;5034640;28;20634;-78
2023/11/17 02:17:56;;;;;;;1.80;0.60;;;8.50;95.20;;;;;;5034669;28;20623;-78
2023/11/17 02:20:26;;;;;;;1.70;0.60;;;8.50;95.20;;;;;;5034919;28;20226;-78
2023/11/17 02:23:02;;;;;;;2.00;0.75;;;8.40;94.90;;;;;;5034457;28;20709;-78
2023/11/17 02:25:35;;;;;;;1.80;0.70;;;8.40;95.10;;;;;;5034756;28;20215;-78
2023/11/17 02:28:20;;;;;;;1.80;0.80;;;8.40;95.20;;;;;;5034741;28;20191;-78
2023/11/17 02:30:55;;;;;;;1.80;0.70;;;8.40;95.20;;;;;;5034345;28;20673;-77
2023/11/17 02:33:26;;;;;;;1.90;0.90;;;8.30;95.00;;;;;;5034665;28;20274;-78
2023/11/17 02:35:56;;;;;;;2.22;0.95;;;8.30;95.30;;;;;;5034470;28;20271;-78
2023/11/17 02:38:23;;;;;;;2.00;0.88;;;8.30;95.20;;;;;;5034240;28;20235;-78
2023/11/17 02:40:55;;;;;;;1.90;0.80;;;8.20;95.10;;;;;;5034072;28;20246;-78
2023/11/17 02:43:25;;;;;;;2.20;0.95;;;8.10;95.20;;;;;;5034419;28;20215;-78
2023/11/17 02:45:53;;;;;;;2.22;1.15;;;8.10;95.20;;;;;;5034058;28;20222;-77
2023/11/17 02:48:24;;;;;;;2.00;0.80;;;8.10;94.80;;;;;;5034335;28;20200;-78
2023/11/17 02:51:03;;;;;;;2.20;1.10;;;8.10;94.80;;;;;;5034278;28;20190;-78
2023/11/17 02:53:32;;;;;;;2.28;1.23;;;8.10;94.50;;;;;;5034759;28;20265;-78
2023/11/17 02:56:00;;;;;;;1.90;0.80;;;8.00;94.50;;;;;;5033628;28;20646;-78
2023/11/17 02:58:37;;;;;;;1.90;0.90;;;8.00;94.70;;;;;;5033810;28;20216;-78
2023/11/17 03:01:18;;;;;;;1.80;0.80;;;8.00;94.70;;;;;;5033862;28;20183;-78
2023/11/17 03:03:47;;;;;;;2.00;0.90;;;8.00;94.50;;;;;;5034088;28;20203;-77
2023/11/17 03:06:23;;;;;;;1.95;0.95;;;8.00;94.50;;;;;;5033926;28;20191;-78
2023/11/17 03:08:56;;;;;;;2.03;1.00;;;8.00;94.50;;;;;;5033974;28;20187;-78
2023/11/17 03:11:24;;;;;;;2.30;0.98;;;7.90;94.30;;;;;;5034068;28;20400;-78
2023/11/17 03:13:54;;;;;;;2.30;1.00;;;7.80;94.30;;;;;;5033992;28;20278;-77
2023/11/17 03:16:24;;;;;;;2.13;1.00;;;7.80;94.40;;;;;;5033678;28;20657;-77
2023/11/17 03:18:53;;;;;;;1.80;0.82;;;7.80;94.70;;;;;;5033537;28;20210;-78
2023/11/17 03:21:23;;;;;;;1.80;0.65;;;7.80;94.90;;;;;;5033359;28;20188;-78
2023/11/17 03:23:55;;;;;;;2.20;0.80;;;7.80;95.10;;;;;;5033734;28;20210;-78
2023/11/17 03:26:25;;;;;;;1.80;0.70;;;7.80;95.00;;;;;;5033061;28;20223;-78
2023/11/17 03:28:52;;;;;;;1.80;0.63;;;7.80;94.10;;;;;;5033386;28;20183;-78
2023/11/17 03:31:19;;;;;;;2.00;0.90;;;7.60;93.50;;;;;;5033627;28;20199;-77
2023/11/17 03:33:50;;;;;;;1.70;0.60;;;7.50;93.10;;;;;;5033247;28;20195;-78
2023/11/17 03:36:18;;;;;;;1.80;0.60;;;7.40;92.60;;;;;;5033902;28;20195;-78
2023/11/17 03:38:47;;;;;;;1.67;0.60;;;7.30;92.80;;;;;;5033753;28;20187;-78
2023/11/17 03:41:22;;;;;;;2.22;0.90;;;7.20;92.80;;;;;;5033548;28;20247;-78
2023/11/17 03:43:50;;;;;;;1.70;0.60;;;7.20;93.10;;;;;;5033462;28;20289;-78
2023/11/17 03:46:21;;;;;;;1.80;0.70;;;7.10;93.30;;;;;;5033117;28;20199;-78
2023/11/17 03:48:52;;;;;;;2.10;0.60;;;7.10;93.10;;;;;;5033494;28;20198;-77
2023/11/17 03:51:19;;;;;;;1.70;0.60;;;7.10;93.20;;;;;;5033532;28;20188;-78
2023/11/17 03:53:55;;;;;;;2.00;0.50;;;7.10;92.90;;;;;;5033087;28;20677;-77
2023/11/17 03:56:24;;;;;;;1.85;0.60;;;7.00;91.80;;;;;;5033350;28;20187;-77
2023/11/17 03:58:54;;;;;;;1.60;0.60;;;7.00;91.90;;;;;;5032780;28;20239;-77
2023/11/17 04:01:21;;;;;;;1.60;0.50;;;6.90;92.10;;;;;;5033296;28;20238;-77
2023/11/17 04:03:50;;;;;;;1.80;0.70;;;6.90;92.10;;;;;;5033168;28;20665;-77
2023/11/17 04:06:17;;;;;;;1.70;0.60;;;6.90;92.40;;;;;;5032922;28;20203;-77
2023/11/17 04:08:47;;;;;;;1.70;0.60;;;6.90;92.60;;;;;;5036986;28;20258;-77
2023/11/17 04:11:15;;;;;;;1.60;0.50;;;6.90;92.50;;;;;;5037271;28;20183;-77
2023/11/17 04:13:44;;;;;;;1.80;0.60;;;6.80;92.40;;;;;;5037243;28;20265;-77
2023/11/17 04:16:11;;;;;;;2.30;0.70;;;6.80;92.40;;;;;;5037644;28;20278;-78
2023/11/17 04:18:39;;;;;;;1.65;0.57;;;6.80;92.40;;;;;;5036835;28;20195;-77
2023/11/17 04:21:10;;;;;;;1.70;0.65;;;6.80;91.90;;;;;;5036688;28;20195;-77
2023/11/17 04:23:37;;;;;;;1.67;0.60;;;6.80;92.00;;;;;;5036779;28;20693;-77
2023/11/17 04:26:09;;;;;;;1.70;0.60;;;6.80;92.20;;;;;;5037014;28;20223;-77
2023/11/17 04:28:37;;;;;;;2.00;0.70;;;6.80;92.20;;;;;;5037123;28;20519;-77
2023/11/17 04:31:08;;;;;;;1.75;0.70;;;6.80;92.00;;;;;;5036942;28;20231;-77
2023/11/17 04:33:35;;;;;;;1.70;0.60;;;6.80;92.10;;;;;;5036628;28;20266;-77
2023/11/17 04:36:03;;;;;;;1.90;0.60;;;6.80;92.00;;;;;;5036775;28;20265;-78
2023/11/17 04:38:32;;;;;;;1.70;0.60;;;6.80;92.10;;;;;;5036511;28;20227;-78
2023/11/17 04:40:59;;;;;;;7.60;2.40;;;6.80;91.90;;;;;;5036744;28;20253;-77
2023/11/17 04:43:26;;;;;;;1.80;0.60;;;6.80;91.90;;;;;;5036504;28;20280;-77
2023/11/17 04:45:54;;;;;;;1.70;0.60;;;6.80;91.80;;;;;;5036110;28;20245;-77
2023/11/17 04:48:24;;;;;;;1.60;0.50;;;6.80;91.90;;;;;;5036733;28;20191;-77
2023/11/17 04:50:53;;;;;;;1.80;0.50;;;6.80;91.90;;;;;;5036254;28;20257;-77
2023/11/17 04:53:21;;;;;;;1.65;0.60;;;6.80;91.90;;;;;;5036082;28;20235;-77
2023/11/17 04:55:52;;;;;;;1.70;0.60;;;6.80;91.80;;;;;;5036696;28;20195;-77
2023/11/17 04:58:21;;;;;;;1.83;0.70;;;6.80;92.10;;;;;;5036296;28;20698;-77
2023/11/17 05:00:48;;;;;;;1.65;0.50;;;6.80;92.40;;;;;;5036401;28;20265;-77
2023/11/17 05:03:20;;;;;;;7.85;3.25;;;6.80;92.50;;;;;;5036367;28;20214;-77
2023/11/17 05:05:48;;;;;;;2.40;0.93;;;6.80;93.10;;;;;;5036758;28;20580;-78
2023/11/17 05:08:16;;;;;;;1.70;0.60;;;6.80;92.80;;;;;;5035960;28;20278;-77
2023/11/17 05:10:43;;;;;;;1.70;0.60;;;6.80;92.60;;;;;;5036070;28;20253;-77
2023/11/17 05:13:13;;;;;;;1.73;0.60;;;6.90;92.20;;;;;;5035900;28;20218;-77
2023/11/17 05:15:46;;;;;;;1.67;0.60;;;6.80;92.20;;;;;;5035778;28;20198;-78
2023/11/17 05:18:15;;;;;;;1.70;0.70;;;6.80;92.10;;;;;;5035761;28;20249;-78
2023/11/17 05:20:44;;;;;;;1.70;0.60;;;6.80;92.10;;;;;;5036290;28;20274;-77
2023/11/17 05:23:14;;;;;;;1.80;0.70;;;6.80;92.30;;;;;;5035705;28;20191;-78
2023/11/17 05:25:41;;;;;;;1.80;0.70;;;6.80;92.10;;;;;;5035640;28;20179;-77
2023/11/17 05:28:13;;;;;;;1.70;0.60;;;6.80;92.20;;;;;;5035806;28;20238;-77
2023/11/17 05:30:41;;;;;;;1.80;0.60;;;6.80;92.40;;;;;;5036100;28;20282;-78
2023/11/17 05:33:08;;;;;;;1.85;0.70;;;6.80;92.50;;;;;;5035661;28;20191;-77
2023/11/17 05:35:40;;;;;;;1.63;0.60;;;6.70;92.30;;;;;;5035935;28;20601;-77
2023/11/17 05:38:09;;;;;;;1.80;0.70;;;6.70;92.30;;;;;;5035527;28;20266;-78
2023/11/17 05:40:39;;;;;;;1.70;0.60;;;6.70;92.30;;;;;;5035733;28;20195;-78
2023/11/17 05:43:08;;;;;;;1.80;0.65;;;6.70;92.30;;;;;;5035633;28;20191;-77
2023/11/17 05:45:38;;;;;;;1.77;0.60;;;6.70;92.30;;;;;;5035098;28;20199;-78
2023/11/17 05:48:06;;;;;;;1.70;0.60;;;6.70;92.10;;;;;;5035268;28;20230;-77
2023/11/17 05:50:34;;;;;;;1.80;0.70;;;6.60;91.90;;;;;;5035137;28;20742;-77
2023/11/17 05:53:04;;;;;;;1.90;0.60;;;6.70;92.00;;;;;;5035450;28;20642;-77
2023/11/17 05:55:33;;;;;;;1.67;0.57;;;6.60;91.80;;;;;;5035707;28;20192;-78
2023/11/17 05:58:04;;;;;;;1.98;0.70;;;6.60;91.50;;;;;;5034710;28;20223;-77
2023/11/17 06:00:34;;;;;;;1.70;0.52;;;6.60;91.60;;;;;;5035531;28;20238;-77
2023/11/17 06:03:02;;;;;;;1.70;0.60;;;6.50;91.50;;;;;;5035077;28;20237;-78
2023/11/17 06:05:37;;;;;;;1.67;0.55;;;6.50;91.60;;;;;;5034901;28;20689;-77
2023/11/17 06:08:10;;;;;;;1.70;0.70;;;6.50;91.70;;;;;;5033027;28;20630;-77
2023/11/17 06:10:40;;;;;;;1.73;0.70;;;6.50;91.80;;;;;;5025263;28;20200;-77
2023/11/17 06:13:12;;;;;;;1.63;0.60;;;6.50;91.70;;;;;;5026549;28;20200;-77
2023/11/17 06:15:39;;;;;;;1.70;0.68;;;6.50;91.60;;;;;;5014674;28;20188;-78
2023/11/17 06:18:08;;;;;;;1.70;0.52;;;6.40;91.30;;;;;;5014620;28;20220;-77
2023/11/17 06:20:37;;;;;;;1.73;0.60;;;6.40;91.30;;;;;;5014545;28;20198;-77
2023/11/17 06:23:04;;;;;;;1.70;0.50;;;6.40;91.30;;;;;;5014757;28;20196;-77
2023/11/17 06:25:32;;;;;;;1.75;0.70;;;6.40;91.20;;;;;;5014194;28;20548;-77
2023/11/17 06:27:59;;;;;;;2.25;0.80;;;6.40;91.40;;;;;;5014341;28;20215;-77
2023/11/17 06:30:26;;;;;;;1.73;0.65;;;6.40;91.60;;;;;;5014177;28;20287;-77
2023/11/17 06:32:53;;;;;;;1.90;0.70;;;6.30;91.70;;;;;;5014419;28;20196;-77
2023/11/17 06:35:21;;;;;;;2.00;0.60;;;6.30;91.90;;;;;;5014200;28;20298;-77
2023/11/17 06:37:48;;;;;;;2.38;0.60;;;6.30;91.80;;;;;;5031269;28;20231;-77
2023/11/17 06:40:15;;;;;;;1.70;0.68;;;6.30;91.40;;;;;;5031490;28;20191;-77
2023/11/17 06:42:43;;;;;;;1.70;0.70;;;6.30;91.30;;;;;;5031469;28;20700;-78
2023/11/17 06:45:12;;;;;;;1.60;0.50;;;6.30;91.50;;;;;;5031615;28;20220;-78
2023/11/17 06:47:43;;;;;;;1.70;0.60;;;6.30;91.40;;;;;;5014301;28;20590;-77
2023/11/17 06:50:11;;;;;;;1.67;0.60;;;6.30;91.40;;;;;;5013790;28;20189;-78
2023/11/17 06:52:41;;;;;;;1.98;0.90;;;6.30;91.50;;;;;;5013974;28;20196;-77
2023/11/17 06:55:09;;;;;;;1.90;0.77;;;6.30;91.40;;;;;;5013988;28;20287;-77
2023/11/17 06:57:36;;;;;;;2.80;1.10;;;6.30;91.50;;;;;;5013404;28;20319;-78
2023/11/17 07:00:10;;;;;;;2.15;0.90;;;6.20;91.70;;;;;;5013990;28;20200;-77
2023/11/17 07:02:41;;;;;;;2.45;1.20;;;6.30;91.60;;;;;;5013541;28;20196;-77
2023/11/17 07:05:10;;;;;;;2.83;0.90;;;6.30;91.20;;;;;;5013080;28;20256;-77
2023/11/17 07:07:39;;;;;;;5.32;1.00;;;6.20;91.10;;;;;;5010544;28;20200;-77
2023/11/17 07:10:14;;;;;;;1.80;0.80;;;6.30;90.70;;;;;;5029762;28;20207;-77
2023/11/17 07:12:41;;;;;;;1.90;0.85;;;6.20;91.00;;;;;;5013439;28;20382;-77
2023/11/17 07:15:11;;;;;;;4.55;0.90;;;6.10;90.70;;;;;;5013215;28;20211;-78
2023/11/17 07:17:39;;;;;;;3.38;1.10;;;6.10;90.50;;;;;;5021465;28;20205;-77
2023/11/17 07:20:11;;;;;;;2.38;1.00;;;6.10;90.40;;;;;;5013138;28;20286;-78
2023/11/17 07:22:41;;;;;;;13.02;2.45;;;6.10;90.20;;;;;;5013715;28;20299;-78
2023/11/17 07:25:10;;;;;;;1.80;0.90;;;6.00;89.60;;;;;;5021164;28;20212;-77
2023/11/17 07:27:39;;;;;;;3.03;0.93;;;5.90;90.30;;;;;;5015368;28;20188;-77
2023/11/17 07:30:07;;;;;;;2.10;0.90;;;5.90;90.70;;;;;;5031604;28;20191;-78
2023/11/17 07:32:35;;;;;;;1.90;0.70;;;5.90;90.60;;;;;;5015013;28;20280;-77
2023/11/17 07:35:26;;;;;;;2.17;0.90;;;5.80;90.50;;;;;;5021786;28;20708;-77
2023/11/17 07:37:53;;;;;;;2.20;1.20;;;5.80;90.40;;;;;;5023967;28;20199;-77
2023/11/17 07:40:22;;;;;;;2.67;1.35;;;5.80;91.30;;;;;;5030631;28;20200;-77
2023/11/17 07:42:49;;;;;;;1.77;0.82;;;5.80;91.00;;;;;;5030399;28;20195;-77
2023/11/17 07:45:17;;;;;;;2.10;0.75;;;5.70;91.00;;;;;;5032200;28;20211;-78
2023/11/17 07:47:44;;;;;;;2.08;0.95;;;5.70;91.40;;;;;;5033359;28;20228;-78
2023/11/17 07:50:13;;;;;;;2.13;0.93;;;5.70;91.60;;;;;;5033044;28;20557;-78
2023/11/17 07:52:44;;;;;;;2.25;1.00;;;5.70;91.50;;;;;;5033249;28;20282;-77
2023/11/17 07:55:13;;;;;;;2.05;0.90;;;5.70;91.60;;;;;;5032851;28;20247;-78
2023/11/17 07:57:42;;;;;;;2.00;0.98;;;5.70;91.80;;;;;;5033030;28;20263;-77
2023/11/17 08:00:17;;;;;;;1.90;1.10;;;5.80;91.80;;;;;;5033230;28;20225;-77
2023/11/17 08:02:45;;;;;;;2.10;1.20;;;5.90;91.90;;;;;;5033280;28;20190;-77
2023/11/17 08:05:12;;;;;;;2.10;0.90;;;5.90;92.00;;;;;;5032811;28;20685;-78
2023/11/17 08:07:43;;;;;;;1.80;0.80;;;6.00;92.30;;;;;;5032823;28;20191;-78
2023/11/17 08:10:10;;;;;;;2.03;0.70;;;6.00;92.60;;;;;;5032692;28;20215;-77
2023/11/17 08:12:38;;;;;;;2.38;0.80;;;6.00;92.70;;;;;;5032869;28;20227;-77
2023/11/17 08:15:08;;;;;;;2.40;0.95;;;6.10;92.60;;;;;;5032735;28;20199;-77
2023/11/17 08:17:37;;;;;;;1.75;0.68;;;6.10;92.50;;;;;;5033204;28;20184;-77
2023/11/17 08:20:10;;;;;;;1.92;0.82;;;6.10;92.60;;;;;;5032657;28;20219;-77
2023/11/17 08:22:38;;;;;;;2.20;0.70;;;6.20;92.60;;;;;;5033096;28;20206;-79
2023/11/17 08:25:06;;;;;;;1.80;0.60;;;6.30;92.70;;;;;;5032809;28;20693;-78
2023/11/17 08:27:33;;;;;;;2.10;0.90;;;6.30;92.60;;;;;;5033279;28;20194;-78
2023/11/17 08:30:00;;;;;;;1.88;0.70;;;6.40;92.60;;;;;;5032693;28;20223;-78
2023/11/17 08:32:29;;;;;;;1.80;0.70;;;6.40;92.50;;;;;;5032885;28;20223;-78
2023/11/17 08:34:58;;;;;;;2.15;0.77;;;6.50;92.50;;;;;;5032327;28;20196;-78
2023/11/17 08:37:25;;;;;;;1.90;0.82;;;6.50;92.00;;;;;;5032577;28;20192;-78
2023/11/17 08:39:52;;;;;;;3.33;1.40;;;6.50;91.60;;;;;;5032467;28;20283;-78
2023/11/17 08:42:19;;;;;;;2.10;1.00;;;6.60;91.20;;;;;;5032361;28;20234;-78
2023/11/17 08:44:46;;;;;;;2.03;0.90;;;6.60;90.90;;;;;;5032582;28;20262;-78
2023/11/17 08:47:13;;;;;;;1.90;0.95;;;6.70;90.80;;;;;;5032534;28;20194;-78
2023/11/17 08:49:42;;;;;;;1.80;0.70;;;6.70;90.90;;;;;;5032592;28;20227;-78
2023/11/17 08:52:09;;;;;;;1.98;0.80;;;6.80;90.90;;;;;;5032610;28;20596;-78
2023/11/17 08:54:36;;;;;;;2.10;1.08;;;6.80;90.60;;;;;;5035889;28;20195;-78
2023/11/17 08:57:04;;;;;;;1.77;0.70;;;6.90;90.90;;;;;;5035960;28;20191;-78
2023/11/17 08:59:31;;;;;;;1.90;0.80;;;6.90;90.50;;;;;;5036334;28;20549;-77
2023/11/17 09:02:00;;;;;;;1.90;0.93;;;6.90;90.30;;;;;;5036118;28;20249;-78
2023/11/17 09:04:27;;;;;;;1.80;0.60;;;6.90;90.10;;;;;;5036281;28;20238;-78
2023/11/17 09:06:56;;;;;;;1.90;0.80;;;7.00;90.30;;;;;;5035984;28;20278;-78
2023/11/17 09:09:23;;;;;;;1.90;0.70;;;7.00;90.20;;;;;;5036037;28;20261;-77
2023/11/17 09:11:50;;;;;;;2.25;0.70;;;7.00;90.20;;;;;;5035240;28;20195;-78
2023/11/17 09:14:17;;;;;;;1.80;0.70;;;7.10;89.60;;;;;;5035878;28;20187;-78
2023/11/17 09:16:44;;;;;;;1.70;0.60;;;7.10;90.10;;;;;;5035581;28;20278;-78
2023/11/17 09:19:13;;;;;;;1.98;0.90;;;7.10;90.40;;;;;;5035868;28;20278;-78
2023/11/17 09:21:42;;;;;;;1.75;0.65;;;7.20;90.00;;;;;;5035766;28;20204;-78
2023/11/17 09:24:11;;;;;;;1.80;0.60;;;7.10;90.10;;;;;;5035910;28;20195;-78
2023/11/17 09:26:40;;;;;;;1.83;0.90;;;7.20;90.00;;;;;;5035533;28;20226;-78
2023/11/17 09:29:08;;;;;;;1.90;0.80;;;7.20;90.00;;;;;;5035385;28;20234;-78
2023/11/17 09:31:35;;;;;;;2.70;1.40;;;7.10;89.70;;;;;;5035371;28;20188;-78
2023/11/17 09:34:03;;;;;;;2.50;1.55;;;7.00;88.60;;;;;;5035392;28;20199;-78
2023/11/17 09:36:30;;;;;;;3.72;1.67;;;7.10;88.10;;;;;;5035559;28;20231;-78
2023/11/17 09:38:57;;;;;;;3.25;1.15;;;7.00;88.20;;;;;;5035247;28;20195;-78
2023/11/17 09:41:26;;;;;;;2.22;1.30;;;7.00;89.10;;;;;;5035401;28;20228;-78
2023/11/17 09:43:57;;;;;;;2.65;1.63;;;7.00;88.10;;;;;;5035443;28;20192;-77
2023/11/17 09:46:33;;;;;;;2.40;1.08;;;6.90;88.30;;;;;;5035376;28;20302;-77
2023/11/17 09:49:02;;;;;;;2.15;1.00;;;6.90;88.40;;;;;;5035042;28;20186;-78
2023/11/17 09:51:32;;;;;;;2.42;0.95;;;6.90;88.50;;;;;;5035250;28;20257;-78
2023/11/17 09:54:01;;;;;;;5.30;0.85;;;6.90;89.20;;;;;;5035804;28;20199;-78
2023/11/17 09:56:30;;;;;;;3.65;0.93;;;6.90;90.00;;;;;;5034894;28;20199;-78
2023/11/17 09:58:59;;;;;;;2.72;1.15;;;6.90;89.90;;;;;;5034944;28;20227;-78
2023/11/17 10:01:29;;;;;;;2.78;0.90;;;7.00;89.90;;;;;;5034853;28;20196;-78
2023/11/17 10:04:03;;;;;;;3.35;1.30;;;7.00;89.40;;;;;;5035217;28;20217;-78
2023/11/17 10:06:31;;;;;;;2.20;1.00;;;7.00;89.60;;;;;;5034584;28;20212;-78
2023/11/17 10:09:01;;;;;;;2.00;0.93;;;7.00;90.00;;;;;;5034912;28;20338;-78
2023/11/17 10:11:30;;;;;;;2.17;0.98;;;7.10;88.70;;;;;;5035121;28;20191;-78
2023/11/17 10:14:00;;;;;;;3.65;1.00;;;7.10;88.10;;;;;;5034911;28;20223;-77
2023/11/17 10:16:28;;;;;;;5.63;1.40;;;7.20;88.40;;;;;;5035009;28;20186;-78
2023/11/17 10:18:57;;;;;;;6.07;2.00;;;7.20;88.10;;;;;;5034824;28;20548;-78
2023/11/17 10:21:24;;;;;;;2.15;1.30;;;7.20;88.10;;;;;;5034525;28;20188;-78
2023/11/17 10:23:53;;;;;;;2.88;1.38;;;7.20;87.50;;;;;;5034737;28;20195;-78
2023/11/17 10:26:22;;;;;;;2.35;1.27;;;7.30;87.70;;;;;;5034302;28;20265;-78
2023/11/17 10:28:51;;;;;;;3.85;1.15;;;7.30;88.40;;;;;;5034223;28;20198;-78
2023/11/17 10:31:21;;;;;;;2.95;1.45;;;7.30;88.30;;;;;;5034594;28;20191;-77
2023/11/17 10:33:53;;;;;;;2.65;1.33;;;7.30;86.70;;;;;;5034249;28;20233;-78
2023/11/17 10:36:22;;;;;;;2.25;0.93;;;7.30;86.50;;;;;;5034392;28;20263;-77
2023/11/17 10:39:06;;;;;;;2.10;1.02;;;7.30;86.90;;;;;;5034469;28;20226;-78
2023/11/17 10:41:33;;;;;;;8.18;2.08;;;7.30;87.10;;;;;;5034284;28;20230;-78
2023/11/17 10:44:03;;;;;;;5.40;2.10;;;7.40;86.70;;;;;;5033996;28;20199;-78
2023/11/17 10:46:39;;;;;;;4.07;1.65;;;7.30;87.20;;;;;;5034211;28;20302;-78
2023/11/17 10:49:07;;;;;;;2.30;1.02;;;7.40;87.60;;;;;;5034201;28;20261;-78
2023/11/17 10:51:45;;;;;;;2.47;1.15;;;7.40;87.30;;;;;;5034089;28;20237;-78
2023/11/17 10:54:12;;;;;;;1.85;0.80;;;7.40;86.40;;;;;;5034385;28;20238;-77
2023/11/17 10:56:42;;;;;;;2.65;1.02;;;7.40;85.60;;;;;;5034295;28;20198;-78
2023/11/17 10:59:16;;;;;;;2.95;1.40;;;7.40;85.00;;;;;;5033812;28;20258;-78
2023/11/17 11:01:43;;;;;;;2.40;1.42;;;7.40;85.50;;;;;;5034779;28;20242;-77
2023/11/17 11:04:15;;;;;;;2.83;0.70;;;7.40;85.70;;;;;;5034198;28;20223;-78
2023/11/17 11:06:43;;;;;;;2.45;1.00;;;7.40;85.20;;;;;;5034000;28;20290;-78
2023/11/17 11:09:16;;;;;;;1.77;0.70;;;7.50;85.10;;;;;;5033802;28;20240;-78
2023/11/17 11:11:48;;;;;;;2.47;0.90;;;7.50;86.10;;;;;;5034095;28;20594;-78
2023/11/17 11:14:17;;;;;;;1.90;0.80;;;7.60;85.80;;;;;;5033683;28;20187;-77
2023/11/17 11:16:46;;;;;;;1.80;0.85;;;7.70;85.80;;;;;;5033413;28;20654;-78
2023/11/17 11:19:16;;;;;;;1.83;0.73;;;7.80;85.50;;;;;;5034041;28;20223;-78
2023/11/17 11:21:48;;;;;;;2.03;1.08;;;7.90;85.40;;;;;;5033819;28;20179;-78
2023/11/17 11:24:18;;;;;;;1.80;0.80;;;7.90;85.30;;;;;;5033875;28;20351;-78
2023/11/17 11:26:47;;;;;;;2.75;0.90;;;8.00;84.10;;;;;;5033706;28;20306;-77
2023/11/17 11:29:18;;;;;;;1.95;0.90;;;8.00;83.90;;;;;;5033483;28;20206;-78
2023/11/17 11:31:47;;;;;;;2.28;0.80;;;8.10;83.90;;;;;;5033854;28;20195;-78
2023/11/17 11:34:14;;;;;;;2.55;1.00;;;8.10;84.00;;;;;;5033727;28;20523;-78
2023/11/17 11:36:42;;;;;;;2.40;1.20;;;8.10;84.70;;;;;;5033596;28;20257;-78
2023/11/17 11:39:10;;;;;;;1.90;0.90;;;8.10;84.10;;;;;;5033756;28;20265;-78
2023/11/17 11:41:41;;;;;;;2.60;0.80;;;8.10;84.20;;;;;;5033584;28;20199;-77
2023/11/17 11:44:09;;;;;;;2.67;0.90;;;8.00;82.90;;;;;;5033566;28;20188;-78
2023/11/17 11:46:39;;;;;;;2.22;0.90;;;8.00;82.30;;;;;;5033232;28;20254;-78
2023/11/17 11:49:11;;;;;;;2.17;0.82;;;7.90;82.30;;;;;;5033800;28;20282;-78
2023/11/17 11:51:51;;;;;;;2.78;1.45;;;7.90;83.40;;;;;;5033404;28;20179;-78
2023/11/17 11:54:19;;;;;;;2.00;0.90;;;7.90;84.00;;;;;;5033146;28;20183;-77
2023/11/17 11:56:47;;;;;;;1.90;0.80;;;7.90;82.70;;;;;;5033512;28;20196;-77
2023/11/17 11:59:15;;;;;;;3.70;1.30;;;7.90;83.00;;;;;;5033335;28;20195;-77
2023/11/17 12:01:47;;;;;;;2.65;1.55;;;7.90;83.90;;;;;;5033032;28;20245;-78
2023/11/17 12:04:20;;;;;;;4.30;1.88;;;7.90;84.40;;;;;;5033601;28;20175;-78
2023/11/17 12:06:47;;;;;;;4.20;1.50;;;7.90;83.90;;;;;;5033361;28;20199;-78
2023/11/17 12:09:16;;;;;;;2.85;1.30;;;7.90;84.20;;;;;;5033514;28;20274;-78
2023/11/17 12:11:47;;;;;;;2.00;1.00;;;7.90;83.60;;;;;;5033538;28;20535;-78
2023/11/17 12:14:16;;;;;;;2.20;0.90;;;7.90;84.10;;;;;;5033358;28;20180;-78
2023/11/17 12:16:54;;;;;;;2.70;1.10;;;8.00;83.10;;;;;;5033200;28;20222;-77
2023/11/17 12:19:23;;;;;;;2.45;1.00;;;7.90;82.70;;;;;;5032991;28;20702;-78
2023/11/17 12:21:51;;;;;;;3.33;1.63;;;7.90;83.20;;;;;;5033197;28;20285;-77
2023/11/17 12:24:23;;;;;;;2.25;0.98;;;7.90;83.00;;;;;;5033242;28;20230;-78
2023/11/17 12:26:53;;;;;;;2.72;1.10;;;7.90;83.00;;;;;;5033128;28;20282;-78
2023/11/17 12:29:22;;;;;;;2.00;0.95;;;7.80;82.90;;;;;;5036223;28;20266;-77
2023/11/17 12:31:51;;;;;;;2.42;1.08;;;7.80;82.20;;;;;;5037128;28;20226;-77
2023/11/17 12:34:19;;;;;;;2.10;1.00;;;7.70;83.00;;;;;;5036616;28;20227;-78
2023/11/17 12:36:46;;;;;;;2.60;1.60;;;7.70;83.50;;;;;;5036476;28;20684;-78
2023/11/17 12:39:16;;;;;;;2.85;1.63;;;7.60;83.30;;;;;;5036192;28;20724;-78
2023/11/17 12:41:45;;;;;;;3.30;2.03;;;7.60;82.60;;;;;;5036866;28;20286;-78
2023/11/17 12:44:17;;;;;;;3.55;1.48;;;7.60;83.70;;;;;;5036837;28;20614;-77
2023/11/17 12:46:45;;;;;;;4.68;1.45;;;7.60;83.80;;;;;;5036387;28;20674;-77
2023/11/17 12:49:15;;;;;;;3.72;1.60;;;7.60;84.50;;;;;;5033760;28;20191;-77
2023/11/17 12:51:45;;;;;;;10.07;3.83;;;7.60;84.30;;;;;;5036091;28;20230;-77
2023/11/17 12:54:16;;;;;;;2.28;1.15;;;7.60;84.80;;;;;;5036447;28;20180;-77
2023/11/17 12:56:43;;;;;;;9.02;4.97;;;7.50;85.00;;;;;;5036384;28;20215;-77
2023/11/17 12:59:12;;;;;;;4.65;2.00;;;7.60;85.30;;;;;;5036467;28;20269;-77
2023/11/17 13:01:40;;;;;;;2.17;0.88;;;7.50;85.40;;;;;;5036174;28;20187;-78
2023/11/17 13:04:09;;;;;;;2.92;1.20;;;7.50;85.00;;;;;;5036316;28;20203;-78
2023/11/17 13:06:38;;;;;;;2.95;1.25;;;7.50;84.70;;;;;;5035999;28;20227;-78